Billings Logan International Airport
KBIL : rendu visible

Aérodrome :











RETROUVEZ-NOUS SUR...

 
LOGIN :

S'inscrire | Disclaimer

   EN    FR    IT 

 









Légende :    VFR   VFR Marginal   IFR   IFR Intensif   IFR Très Intensif
Visi : 
Plafond : 
>= 8 km
>= 3000ft
5 à 8 km
1000 à 3000 ft
1500m à 5 km
500 à 1000 ft
800 à 1500m
200 à 500 ft
< 800m
< 200 ft
Symboles :   Orages  Brouillard  Fortes neiges  Fortes précipitations  Vent > 20 kt






- Altitude de l'aérodrome : 3652 ft
- Code IATA : BIL


KBIL - Billings Logan International

DERNIER METAR :
  • 192153Z 22011KT 10SM FEW060 M03/M10 A3037 RMK AO2 SLP343 T10281100

METARs EXPIRÉS :
  • 192053Z 23012KT 10SM FEW060 M03/M11 A3038 RMK AO2 SLP347 T10331106 58013
  • 191953Z 24011KT 10SM FEW060 M04/M10 A3039 RMK AO2 SLP354 T10441100

TAF KBIL
Valide du 19 à 18h jusqu'au 20 à 18h UTC


191724Z 1918/2018 23014KT P6SM SKC
FM200700 23017G24KT P6SM SKC



MET'MAP, la Météo Aéronautique d'un coup d'oeil ! - Copyright ORBIFLY Décembre 2007 - Disclaimer

ORBIFLY MET'MAP TEAM :

Programmation & Développement : Alexandra Zaïnal
Sur une idée originale de : Baudouin d'Aumeries
Assistance à la programmation : Marc-Olivier Méhu
Soutien technique & logistique : Manuel Goepfert

Contact : metmap@orbifly.com




SOURCES & CREDITS :

   NOAA       Earth
Advisory